createdAt,value
2018-03-23T00:01:19.445Z,3.05
2018-03-23T00:03:45.239Z,3.08
2018-03-23T00:06:11.038Z,3.01
2018-03-23T00:08:36.830Z,3.08
2018-03-23T00:11:02.632Z,3.02
2018-03-23T00:13:28.535Z,3.01
2018-03-23T00:15:54.329Z,3.00
2018-03-23T00:18:20.123Z,2.93
2018-03-23T00:20:45.912Z,3.04
2018-03-23T00:23:11.691Z,2.98
2018-03-23T00:25:37.499Z,2.96
2018-03-23T00:28:03.287Z,2.86
2018-03-23T00:30:29.087Z,2.95
2018-03-23T00:32:54.910Z,2.86
2018-03-23T00:35:20.700Z,2.89
2018-03-23T00:37:46.474Z,2.88
2018-03-23T00:40:12.287Z,2.80
2018-03-23T00:42:38.063Z,2.86
2018-03-23T00:45:03.881Z,2.73
2018-03-23T00:47:30.044Z,2.71
2018-03-23T00:49:55.833Z,2.72
2018-03-23T00:52:21.636Z,2.76
2018-03-23T00:54:47.441Z,2.68
2018-03-23T00:57:13.232Z,2.61
2018-03-23T00:59:39.028Z,2.67
2018-03-23T01:02:04.848Z,2.75
2018-03-23T01:04:30.631Z,2.78
2018-03-23T01:06:56.411Z,2.81
2018-03-23T01:09:22.403Z,2.84
2018-03-23T01:11:48.199Z,2.84
2018-03-23T01:14:13.978Z,2.84
2018-03-23T01:16:39.884Z,2.81
2018-03-23T01:19:05.663Z,2.83
2018-03-23T01:21:31.455Z,2.88
2018-03-23T01:23:57.275Z,2.85
2018-03-23T01:26:23.071Z,2.84
2018-03-23T01:28:48.883Z,2.83
2018-03-23T01:31:14.694Z,2.86
2018-03-23T01:33:40.496Z,2.84
2018-03-23T01:36:06.292Z,2.77
2018-03-23T01:38:32.133Z,2.68
2018-03-23T01:40:57.926Z,2.68
2018-03-23T01:43:23.719Z,2.78
2018-03-23T01:45:49.519Z,2.71
2018-03-23T01:48:15.302Z,2.78
2018-03-23T01:50:41.079Z,2.76
2018-03-23T01:53:07.046Z,2.96
2018-03-23T01:55:32.855Z,3.01
2018-03-23T01:57:58.650Z,2.81
2018-03-23T02:00:24.476Z,2.85
2018-03-23T02:02:50.291Z,2.85
2018-03-23T02:05:16.077Z,2.61
2018-03-23T02:07:41.874Z,2.56
2018-03-23T02:10:07.667Z,2.76
2018-03-23T02:12:33.438Z,2.70
2018-03-23T02:14:59.284Z,2.80
2018-03-23T02:17:25.092Z,2.77
2018-03-23T02:19:50.932Z,2.64
2018-03-23T02:22:16.747Z,2.68
2018-03-23T02:24:42.543Z,2.68
2018-03-23T02:27:08.335Z,2.78
2018-03-23T02:29:34.147Z,2.72
2018-03-23T02:31:59.996Z,2.76
2018-03-23T02:34:25.778Z,2.71
2018-03-23T02:36:51.550Z,2.77
2018-03-23T02:39:17.583Z,2.79
2018-03-23T02:41:43.367Z,2.72
2018-03-23T02:44:09.193Z,2.67
2018-03-23T02:46:42.173Z,2.64
2018-03-23T02:49:07.969Z,2.70
2018-03-23T02:51:33.746Z,2.62
2018-03-23T02:53:59.547Z,2.55
2018-03-23T02:56:25.331Z,2.56
2018-03-23T02:58:51.105Z,2.53
2018-03-23T03:01:16.915Z,2.56
2018-03-23T03:03:42.726Z,2.61
2018-03-23T03:06:08.509Z,2.57
2018-03-23T03:08:34.299Z,2.58
2018-03-23T03:11:00.088Z,2.64
2018-03-23T03:13:25.911Z,2.50
2018-03-23T03:15:51.702Z,2.55
2018-03-23T03:18:17.508Z,2.59
2018-03-23T03:20:43.316Z,2.62
2018-03-23T03:23:09.114Z,2.61
2018-03-23T03:25:34.899Z,2.62
2018-03-23T03:28:00.706Z,2.38
2018-03-23T03:30:26.495Z,2.57
2018-03-23T03:32:52.278Z,2.69
2018-03-23T03:35:18.081Z,2.77
2018-03-23T03:37:43.859Z,2.51
2018-03-23T03:40:09.648Z,2.45
2018-03-23T03:42:35.462Z,2.53
2018-03-23T03:45:01.260Z,2.56
2018-03-23T03:47:27.037Z,2.60
2018-03-23T03:49:52.838Z,2.67
2018-03-23T03:52:18.620Z,2.79
2018-03-23T03:54:44.412Z,2.65
2018-03-23T03:57:10.198Z,2.57
2018-03-23T03:59:35.978Z,2.55
2018-03-23T04:02:01.760Z,2.34
2018-03-23T04:04:27.570Z,2.29
2018-03-23T04:06:53.352Z,2.45
2018-03-23T04:09:19.134Z,2.49
2018-03-23T04:11:44.925Z,2.35
2018-03-23T04:14:10.711Z,2.47
2018-03-23T04:16:36.488Z,2.46
2018-03-23T04:19:02.393Z,2.53
2018-03-23T04:21:28.185Z,2.46
2018-03-23T04:23:53.970Z,2.54
2018-03-23T04:26:19.759Z,2.36
2018-03-23T04:28:45.534Z,2.32
2018-03-23T04:31:11.322Z,2.27
2018-03-23T04:33:37.127Z,2.24
2018-03-23T04:36:02.914Z,2.32
2018-03-23T04:38:28.703Z,2.24
2018-03-23T04:40:54.490Z,2.39
2018-03-23T04:43:20.273Z,2.34
2018-03-23T04:45:46.057Z,2.27
2018-03-23T04:48:11.836Z,2.32
2018-03-23T04:50:37.611Z,2.50
2018-03-23T04:53:03.423Z,2.43
2018-03-23T04:55:29.198Z,2.48
2018-03-23T04:57:54.971Z,2.54
2018-03-23T05:00:20.783Z,2.49
2018-03-23T05:02:46.556Z,2.65
2018-03-23T05:05:12.349Z,2.49
2018-03-23T05:07:38.186Z,2.50
2018-03-23T05:10:03.996Z,2.48
2018-03-23T05:12:29.789Z,2.37
2018-03-23T05:14:55.595Z,2.54
2018-03-23T05:17:21.374Z,2.43
2018-03-23T05:19:47.171Z,2.37
2018-03-23T05:22:12.951Z,2.36
2018-03-23T05:24:38.736Z,2.50
2018-03-23T05:27:04.559Z,2.53
2018-03-23T05:29:30.346Z,2.57
2018-03-23T05:31:56.114Z,2.53
2018-03-23T05:34:21.949Z,2.60
2018-03-23T05:36:47.742Z,2.46
2018-03-23T05:39:13.542Z,2.69
2018-03-23T05:41:39.337Z,2.72
2018-03-23T05:44:05.123Z,2.60
2018-03-23T05:49:03.399Z,2.75
2018-03-23T05:51:29.192Z,4.97
2018-03-23T05:53:55.007Z,4.72
2018-03-23T05:56:20.800Z,3.60
2018-03-23T05:58:46.590Z,3.40
2018-03-23T06:01:12.392Z,3.33
2018-03-23T06:03:38.175Z,3.10
2018-03-23T06:06:03.961Z,3.00
2018-03-23T06:08:29.758Z,2.96
2018-03-23T06:10:55.563Z,2.92
2018-03-23T06:13:21.355Z,2.82
2018-03-23T06:15:47.160Z,2.84
2018-03-23T06:18:12.943Z,3.05
2018-03-23T06:20:38.731Z,3.05
2018-03-23T06:23:04.634Z,2.89
2018-03-23T06:25:30.418Z,2.92
2018-03-23T06:27:56.242Z,2.74
2018-03-23T06:30:22.025Z,2.76
2018-03-23T06:32:47.799Z,2.85
2018-03-23T06:35:13.587Z,2.83
2018-03-23T06:37:39.411Z,4.91
2018-03-23T06:40:05.206Z,3.81
2018-03-23T06:42:30.991Z,3.47
2018-03-23T06:44:56.805Z,3.27
2018-03-23T06:47:22.599Z,3.29
2018-03-23T06:49:48.385Z,4.24
2018-03-23T06:52:14.176Z,3.64
2018-03-23T06:54:39.955Z,3.34
2018-03-23T06:57:05.749Z,3.23
2018-03-23T06:59:31.553Z,3.14
2018-03-23T07:01:57.331Z,3.13
2018-03-23T07:04:23.241Z,3.17
2018-03-23T07:06:49.023Z,3.21
2018-03-23T07:09:14.811Z,3.29
2018-03-23T07:11:40.634Z,3.38
2018-03-23T07:14:06.426Z,3.46
2018-03-23T07:16:32.210Z,3.54
2018-03-23T07:18:58.007Z,3.41
2018-03-23T07:21:23.808Z,4.19
2018-03-23T07:23:50.489Z,4.18
2018-03-23T07:26:17.968Z,4.64
2018-03-23T07:28:44.292Z,4.77
2018-03-23T07:31:11.822Z,4.28
2018-03-23T07:33:39.205Z,4.73
2018-03-23T07:36:06.130Z,4.40
2018-03-23T07:38:32.487Z,3.99
2018-03-23T07:40:59.270Z,3.85
2018-03-23T07:43:25.072Z,3.59
2018-03-23T07:45:52.763Z,3.51
2018-03-23T07:48:19.090Z,3.72
2018-03-23T07:50:44.882Z,3.77
2018-03-23T07:53:11.066Z,3.94
2018-03-23T07:55:37.476Z,3.97
2018-03-23T07:58:03.263Z,4.01
2018-03-23T08:00:29.060Z,3.92
2018-03-23T08:02:54.879Z,3.87
2018-03-23T08:05:20.688Z,3.82
2018-03-23T08:07:47.442Z,3.69
2018-03-23T08:10:13.275Z,3.77
2018-03-23T08:12:39.083Z,3.96
2018-03-23T08:15:05.408Z,3.91
2018-03-23T08:17:31.242Z,4.01
2018-03-23T08:19:57.040Z,4.01
2018-03-23T08:22:22.844Z,3.96
2018-03-23T08:24:48.720Z,4.02
2018-03-23T08:27:14.523Z,4.16
2018-03-23T08:29:40.832Z,4.27
2018-03-23T08:32:06.660Z,4.05
2018-03-23T08:34:33.335Z,4.20
2018-03-23T08:36:59.123Z,4.33
2018-03-23T08:39:24.957Z,4.48
2018-03-23T08:41:51.363Z,4.33
2018-03-23T08:44:17.160Z,4.14
2018-03-23T08:46:43.174Z,4.25
2018-03-23T08:49:08.984Z,4.38
2018-03-23T08:51:35.577Z,4.28
2018-03-23T08:54:01.422Z,4.48
2018-03-23T08:56:27.217Z,4.62
2018-03-23T08:58:52.995Z,4.81
2018-03-23T09:01:18.787Z,4.76
2018-03-23T09:03:44.575Z,4.77
2018-03-23T09:06:12.775Z,4.69
2018-03-23T09:08:38.914Z,4.60
2018-03-23T09:11:04.709Z,4.78
2018-03-23T09:13:30.502Z,5.00
2018-03-23T09:15:56.476Z,5.09
2018-03-23T09:18:22.281Z,5.03
2018-03-23T09:20:48.080Z,5.10
2018-03-23T09:23:13.895Z,5.19
2018-03-23T09:25:39.674Z,5.33
2018-03-23T09:28:05.488Z,5.29
2018-03-23T09:30:31.308Z,5.54
2018-03-23T09:32:57.131Z,5.29
2018-03-23T09:35:22.931Z,5.26
2018-03-23T09:37:48.740Z,5.32
2018-03-23T09:40:14.555Z,5.27
2018-03-23T09:42:40.341Z,5.32
2018-03-23T09:45:06.154Z,5.47
2018-03-23T09:47:31.947Z,5.62
2018-03-23T09:49:57.838Z,5.68
2018-03-23T09:52:23.647Z,5.56
2018-03-23T09:54:49.438Z,5.47
2018-03-23T09:57:15.629Z,5.67
2018-03-23T09:59:41.390Z,5.73
2018-03-23T10:02:07.168Z,5.84
2018-03-23T10:04:33.006Z,5.82
2018-03-23T10:06:58.793Z,5.88
2018-03-23T10:09:24.588Z,6.08
2018-03-23T10:11:50.404Z,6.21
2018-03-23T10:14:16.370Z,6.22
2018-03-23T10:16:49.057Z,6.29
2018-03-23T10:19:14.902Z,6.34
2018-03-23T10:21:40.743Z,6.31
2018-03-23T10:24:06.490Z,6.38
2018-03-23T10:26:32.566Z,6.92
2018-03-23T10:28:58.381Z,6.31
2018-03-23T10:31:24.147Z,6.22
2018-03-23T10:33:49.932Z,6.34
2018-03-23T10:36:15.719Z,6.65
2018-03-23T10:38:41.568Z,6.66
2018-03-23T10:41:07.384Z,7.03
2018-03-23T10:43:33.186Z,6.73
2018-03-23T10:45:58.992Z,6.63
2018-03-23T10:48:24.771Z,6.83
2018-03-23T10:50:50.633Z,7.08
2018-03-23T10:53:16.443Z,6.54
2018-03-23T10:55:42.232Z,6.46
2018-03-23T10:58:08.051Z,6.62
2018-03-23T11:00:40.074Z,6.71
2018-03-23T11:03:05.854Z,6.75
2018-03-23T11:05:32.007Z,6.88
2018-03-23T11:08:04.811Z,7.11
2018-03-23T11:10:30.594Z,9.73
2018-03-23T11:12:56.396Z,10.68
2018-03-23T11:15:22.194Z,8.41
2018-03-23T11:17:47.990Z,7.99
2018-03-23T11:20:13.770Z,8.60
2018-03-23T11:22:39.590Z,8.52
2018-03-23T11:25:05.405Z,10.20
2018-03-23T11:27:31.179Z,10.38
2018-03-23T11:29:56.984Z,9.25
2018-03-23T11:32:22.879Z,8.18
2018-03-23T11:34:48.666Z,7.62
2018-03-23T11:37:14.442Z,7.71
2018-03-23T11:39:40.256Z,8.05
2018-03-23T11:42:06.035Z,7.60
2018-03-23T11:44:31.806Z,7.60
2018-03-23T11:46:57.615Z,8.31
2018-03-23T11:49:23.394Z,9.21
2018-03-23T11:51:49.183Z,9.62
2018-03-23T11:54:15.188Z,9.57
2018-03-23T11:56:40.985Z,9.59
2018-03-23T11:59:06.882Z,9.32
2018-03-23T12:01:32.710Z,9.79
2018-03-23T12:03:58.498Z,9.04
2018-03-23T12:06:24.283Z,8.04
2018-03-23T12:08:50.314Z,7.95
2018-03-23T12:11:16.126Z,7.84
2018-03-23T12:13:41.907Z,8.18
2018-03-23T12:16:07.936Z,8.14
2018-03-23T12:18:33.716Z,8.32
2018-03-23T12:20:59.501Z,8.91
2018-03-23T12:23:25.312Z,8.92
2018-03-23T12:25:51.099Z,8.79
2018-03-23T12:28:16.871Z,9.19
2018-03-23T12:30:42.693Z,8.96
2018-03-23T12:33:08.463Z,8.94
2018-03-23T12:35:34.247Z,9.13
2018-03-23T12:38:00.120Z,9.09
2018-03-23T12:40:25.867Z,9.01
2018-03-23T12:42:51.655Z,8.92
2018-03-23T12:45:17.699Z,8.50
2018-03-23T12:47:43.530Z,8.54
2018-03-23T12:50:09.369Z,8.51
2018-03-23T12:52:35.136Z,8.55
2018-03-23T12:55:00.934Z,8.67
2018-03-23T12:57:26.712Z,8.52
2018-03-23T12:59:52.523Z,8.46
2018-03-23T13:02:18.310Z,8.48
2018-03-23T13:04:44.087Z,8.21
2018-03-23T13:07:09.881Z,8.20
2018-03-23T13:09:35.663Z,8.20
2018-03-23T13:12:01.444Z,8.22
2018-03-23T13:14:27.238Z,8.12
2018-03-23T13:16:53.075Z,7.96
2018-03-23T13:19:18.846Z,7.87
2018-03-23T13:21:44.641Z,7.86
2018-03-23T13:24:10.459Z,7.95
2018-03-23T13:26:36.251Z,8.07
2018-03-23T13:29:02.045Z,7.98
2018-03-23T13:31:27.846Z,7.97
2018-03-23T13:33:53.622Z,8.00
2018-03-23T13:36:19.398Z,8.12
2018-03-23T13:38:45.215Z,7.86
2018-03-23T13:41:11.034Z,7.94
2018-03-23T13:43:36.913Z,7.93
2018-03-23T13:46:02.700Z,7.97
2018-03-23T13:48:28.501Z,7.88
2018-03-23T13:50:54.288Z,7.85
2018-03-23T13:53:20.076Z,7.78
2018-03-23T13:55:45.872Z,7.83
2018-03-23T13:58:11.656Z,7.92
2018-03-23T14:00:43.411Z,7.90
2018-03-23T14:03:09.203Z,7.73
2018-03-23T14:05:34.991Z,7.66
2018-03-23T14:08:00.811Z,7.59
2018-03-23T14:10:26.588Z,7.65
2018-03-23T14:12:52.379Z,7.70
2018-03-23T14:15:18.194Z,7.60
2018-03-23T14:17:44.007Z,7.76
2018-03-23T14:20:09.800Z,7.52
2018-03-23T14:22:35.626Z,7.45
2018-03-23T14:25:01.419Z,7.39
2018-03-23T14:27:27.225Z,7.39
2018-03-23T14:29:53.020Z,7.40
2018-03-23T14:32:18.847Z,7.44
2018-03-23T14:34:44.638Z,7.58
2018-03-23T14:37:10.428Z,7.63
2018-03-23T14:39:36.227Z,7.60
2018-03-23T14:42:02.030Z,7.51
2018-03-23T14:44:27.921Z,7.43
2018-03-23T14:46:53.774Z,7.50
2018-03-23T14:49:19.504Z,7.68
2018-03-23T14:51:45.513Z,7.59
2018-03-23T14:54:11.320Z,7.67
2018-03-23T14:56:37.111Z,7.72
2018-03-23T14:59:09.104Z,7.61
2018-03-23T15:01:34.839Z,7.64
2018-03-23T15:04:01.050Z,7.75
2018-03-23T15:06:26.834Z,7.76
2018-03-23T15:08:52.628Z,7.89
2018-03-23T15:11:18.439Z,7.88
2018-03-23T15:13:44.232Z,7.78
2018-03-23T15:16:10.024Z,7.79
2018-03-23T15:18:35.949Z,8.46
2018-03-23T15:21:01.764Z,8.43
2018-03-23T15:23:27.569Z,7.97
2018-03-23T15:25:53.379Z,7.94
2018-03-23T15:28:19.178Z,8.01
2018-03-23T15:30:45.039Z,8.04
2018-03-23T15:33:10.852Z,8.41
2018-03-23T15:35:37.303Z,8.50
2018-03-23T15:38:03.163Z,8.03
2018-03-23T15:40:29.011Z,8.47
2018-03-23T15:42:54.959Z,8.75
2018-03-23T15:45:20.809Z,8.30
2018-03-23T15:47:46.681Z,8.05
2018-03-23T15:50:12.536Z,7.95
2018-03-23T15:52:38.452Z,7.82
2018-03-23T15:55:04.337Z,7.91
2018-03-23T15:57:30.174Z,7.80
2018-03-23T15:59:55.997Z,7.82
2018-03-23T16:02:21.832Z,7.80
2018-03-23T16:04:48.590Z,7.81
2018-03-23T16:07:14.391Z,7.84
2018-03-23T16:09:40.218Z,7.70
2018-03-23T16:12:06.026Z,7.72
2018-03-23T16:14:31.831Z,7.76
2018-03-23T16:16:57.858Z,7.78
2018-03-23T16:19:23.696Z,7.87
2018-03-23T16:21:49.550Z,7.84
2018-03-23T16:24:16.048Z,7.93
2018-03-23T16:26:41.896Z,7.85
2018-03-23T16:29:07.694Z,7.81
2018-03-23T16:31:33.497Z,7.69
2018-03-23T16:33:59.330Z,7.76
2018-03-23T16:36:25.418Z,8.42
2018-03-23T16:38:51.205Z,10.05
2018-03-23T16:41:17.126Z,9.73
2018-03-23T16:43:43.123Z,8.85
2018-03-23T16:46:08.914Z,8.56
2018-03-23T16:48:34.997Z,8.12
2018-03-23T16:51:00.826Z,8.14
2018-03-23T16:53:26.807Z,8.19
2018-03-23T16:55:53.555Z,8.01
2018-03-23T16:58:19.450Z,8.12
2018-03-23T17:00:45.234Z,8.28
2018-03-23T17:03:11.043Z,8.11
2018-03-23T17:05:36.843Z,8.05
2018-03-23T17:08:02.672Z,8.04
2018-03-23T17:10:28.483Z,7.88
2018-03-23T17:12:54.283Z,7.86
2018-03-23T17:15:20.083Z,7.81
2018-03-23T17:17:45.911Z,7.82
2018-03-23T17:20:11.825Z,7.84
2018-03-23T17:22:37.634Z,7.89
2018-03-23T17:25:03.627Z,7.90
2018-03-23T17:27:29.412Z,8.09
2018-03-23T17:29:55.190Z,7.96
2018-03-23T17:32:21.012Z,8.13
2018-03-23T17:34:46.794Z,7.98
2018-03-23T17:37:12.579Z,7.96
2018-03-23T17:39:38.435Z,7.89
2018-03-23T17:42:04.215Z,7.82
2018-03-23T17:44:30.015Z,7.97
2018-03-23T17:46:55.823Z,7.84
2018-03-23T17:49:21.597Z,7.75
2018-03-23T17:51:47.414Z,7.75
2018-03-23T17:54:13.211Z,7.75
2018-03-23T17:56:39.018Z,7.81
2018-03-23T17:59:04.812Z,7.79
2018-03-23T18:01:30.608Z,7.73
2018-03-23T18:03:56.399Z,7.78
2018-03-23T18:06:22.201Z,7.77
2018-03-23T18:08:47.963Z,7.76
2018-03-23T18:11:13.848Z,7.83
2018-03-23T18:13:39.638Z,7.75
2018-03-23T18:16:05.444Z,7.74
2018-03-23T18:18:31.271Z,7.78
2018-03-23T18:20:57.079Z,7.72
2018-03-23T18:23:22.872Z,7.71
2018-03-23T18:25:48.716Z,7.77
2018-03-23T18:28:14.503Z,7.73
2018-03-23T18:30:40.275Z,7.69
2018-03-23T18:33:06.081Z,7.65
2018-03-23T18:35:31.896Z,7.59
2018-03-23T18:37:57.700Z,7.64
2018-03-23T18:40:23.482Z,7.64
2018-03-23T18:42:49.275Z,7.54
2018-03-23T18:45:15.105Z,7.57
2018-03-23T18:47:40.891Z,7.45
2018-03-23T18:50:06.699Z,7.47
2018-03-23T18:52:32.536Z,7.42
2018-03-23T18:54:58.325Z,7.46
2018-03-23T18:57:24.106Z,7.34
2018-03-23T18:59:49.940Z,7.31
2018-03-23T19:02:15.738Z,7.29
2018-03-23T19:04:41.546Z,7.24
2018-03-23T19:07:07.319Z,7.30
2018-03-23T19:09:33.128Z,7.24
2018-03-23T19:11:58.928Z,7.15
2018-03-23T19:14:24.807Z,7.21
2018-03-23T19:16:50.643Z,7.18
2018-03-23T19:19:17.857Z,7.10
2018-03-23T19:21:44.644Z,7.20
2018-03-23T19:24:10.456Z,7.18
2018-03-23T19:26:36.828Z,7.27
2018-03-23T19:29:02.679Z,7.20
2018-03-23T19:31:28.472Z,7.20
2018-03-23T19:33:54.277Z,7.14
2018-03-23T19:36:20.110Z,7.07
2018-03-23T19:38:46.105Z,7.13
2018-03-23T19:41:11.899Z,7.09
2018-03-23T19:43:37.796Z,7.09
2018-03-23T19:46:03.612Z,6.94
2018-03-23T19:48:29.423Z,6.89
2018-03-23T19:50:55.231Z,6.96
2018-03-23T19:53:21.244Z,6.89
2018-03-23T19:55:47.199Z,6.78
2018-03-23T19:58:13.056Z,6.80
2018-03-23T20:00:38.844Z,6.94
2018-03-23T20:03:05.191Z,6.81
2018-03-23T20:05:31.085Z,6.72
2018-03-23T20:07:56.880Z,6.77
2018-03-23T20:10:22.986Z,6.73
2018-03-23T20:12:48.804Z,6.86
2018-03-23T20:15:14.596Z,8.66
2018-03-23T20:17:46.416Z,8.02
2018-03-23T20:20:18.595Z,8.22
2018-03-23T20:22:44.816Z,9.35
2018-03-23T20:25:10.980Z,10.61
2018-03-23T20:27:42.898Z,10.12
2018-03-23T20:30:08.988Z,9.37
2018-03-23T20:32:34.787Z,10.66
2018-03-23T20:35:00.621Z,10.74
2018-03-23T20:37:26.493Z,9.69
2018-03-23T20:39:52.296Z,9.92
2018-03-23T20:42:18.104Z,10.17
2018-03-23T20:44:44.436Z,9.68
2018-03-23T20:47:10.282Z,8.42
2018-03-23T20:49:36.094Z,7.52
2018-03-23T20:52:02.029Z,7.30
2018-03-23T20:54:27.845Z,7.33
2018-03-23T20:56:54.561Z,7.15
2018-03-23T20:59:21.408Z,7.01
2018-03-23T21:01:48.177Z,7.10
2018-03-23T21:04:14.052Z,7.08
2018-03-23T21:06:40.870Z,7.11
2018-03-23T21:09:06.715Z,7.02
2018-03-23T21:11:32.535Z,6.90
2018-03-23T21:13:58.360Z,6.78
2018-03-23T21:16:24.535Z,6.66
2018-03-23T21:18:50.357Z,6.65
2018-03-23T21:21:17.334Z,6.59
2018-03-23T21:23:43.284Z,6.58
2018-03-23T21:26:09.103Z,6.71
2018-03-23T21:28:34.900Z,6.49
2018-03-23T21:31:01.785Z,6.57
2018-03-23T21:33:27.636Z,6.42
2018-03-23T21:35:53.479Z,6.41
2018-03-23T21:38:19.308Z,6.56
2018-03-23T21:40:45.241Z,6.35
2018-03-23T21:43:12.022Z,6.42
2018-03-23T21:45:37.868Z,6.42
2018-03-23T21:48:03.679Z,6.35
2018-03-23T21:50:30.293Z,6.31
2018-03-23T21:52:58.084Z,6.31
2018-03-23T21:55:23.908Z,6.32
2018-03-23T21:57:49.692Z,6.27
2018-03-23T22:00:15.504Z,6.26
2018-03-23T22:02:48.157Z,6.30
2018-03-23T22:05:13.970Z,6.44
2018-03-23T22:07:39.779Z,6.42
2018-03-23T22:10:05.567Z,6.31
2018-03-23T22:12:31.359Z,6.35
2018-03-23T22:14:58.205Z,6.42
2018-03-23T22:17:24.085Z,6.49
2018-03-23T22:19:49.903Z,6.85
2018-03-23T22:22:16.358Z,8.54
2018-03-23T22:24:42.205Z,7.81
2018-03-23T22:27:08.986Z,7.14
2018-03-23T22:29:35.063Z,6.82
2018-03-23T22:32:01.802Z,6.80
2018-03-23T22:34:27.592Z,6.48
2018-03-23T22:36:53.520Z,6.34
2018-03-23T22:39:19.333Z,6.45
2018-03-23T22:41:45.774Z,6.46
2018-03-23T22:44:11.579Z,6.40
2018-03-23T22:46:37.546Z,6.51
2018-03-23T22:49:03.373Z,6.46
2018-03-23T22:51:29.320Z,6.46
2018-03-23T22:53:55.489Z,6.95
2018-03-23T22:56:21.301Z,7.07
2018-03-23T22:58:47.750Z,6.92
2018-03-23T23:01:13.667Z,6.88
2018-03-23T23:03:39.456Z,6.94
2018-03-23T23:06:05.273Z,6.94
2018-03-23T23:08:31.098Z,7.00
2018-03-23T23:10:56.952Z,6.94
2018-03-23T23:13:22.746Z,6.93
2018-03-23T23:15:48.590Z,6.80
2018-03-23T23:18:14.400Z,6.84
2018-03-23T23:20:41.964Z,6.74
2018-03-23T23:23:07.979Z,6.85
2018-03-23T23:25:33.800Z,6.83
2018-03-23T23:27:59.648Z,6.73
2018-03-23T23:30:25.463Z,6.85
2018-03-23T23:32:51.257Z,6.69
2018-03-23T23:35:17.062Z,6.63
2018-03-23T23:37:42.847Z,6.67
2018-03-23T23:40:08.672Z,6.65
2018-03-23T23:42:35.104Z,6.60
2018-03-23T23:45:00.912Z,6.58
2018-03-23T23:47:26.880Z,6.58
2018-03-23T23:49:52.659Z,6.58
2018-03-23T23:52:18.442Z,6.67
2018-03-23T23:54:44.259Z,6.66
2018-03-23T23:57:10.040Z,6.58
2018-03-23T23:59:35.817Z,6.77
